sensor_id;sensor_type;location;lat;lon;timestamp;temperature;humidity
33988;DHT22;37428;53.580;-1.666;2023-02-28T00:02:19;4.80;98.50
33988;DHT22;37428;53.580;-1.666;2023-02-28T00:05:23;4.70;98.40
33988;DHT22;37428;53.580;-1.666;2023-02-28T00:08:25;4.70;99.00
33988;DHT22;37428;53.580;-1.666;2023-02-28T00:11:27;4.70;98.60
33988;DHT22;37428;53.580;-1.666;2023-02-28T00:14:30;4.80;98.20
33988;DHT22;37428;53.580;-1.666;2023-02-28T00:17:33;4.80;98.20
33988;DHT22;37428;53.580;-1.666;2023-02-28T00:20:36;4.80;98.40
33988;DHT22;37428;53.580;-1.666;2023-02-28T00:23:39;4.80;97.90
33988;DHT22;37428;53.580;-1.666;2023-02-28T00:26:44;4.70;98.10
33988;DHT22;37428;53.580;-1.666;2023-02-28T00:29:46;4.70;98.00
33988;DHT22;37428;53.580;-1.666;2023-02-28T00:32:50;4.60;98.40
33988;DHT22;37428;53.580;-1.666;2023-02-28T00:35:56;4.70;98.60
33988;DHT22;37428;53.580;-1.666;2023-02-28T00:39:02;4.70;98.60
33988;DHT22;37428;53.580;-1.666;2023-02-28T00:42:05;4.70;98.60
33988;DHT22;37428;53.580;-1.666;2023-02-28T00:45:08;4.70;98.30
33988;DHT22;37428;53.580;-1.666;2023-02-28T00:48:11;4.70;98.40
33988;DHT22;37428;53.580;-1.666;2023-02-28T00:51:13;4.80;98.40
33988;DHT22;37428;53.580;-1.666;2023-02-28T00:54:17;4.80;97.70
33988;DHT22;37428;53.580;-1.666;2023-02-28T00:57:19;4.80;97.70
33988;DHT22;37428;53.580;-1.666;2023-02-28T01:00:21;4.80;97.50
33988;DHT22;37428;53.580;-1.666;2023-02-28T01:03:25;4.70;97.40
33988;DHT22;37428;53.580;-1.666;2023-02-28T01:06:27;4.70;97.80
33988;DHT22;37428;53.580;-1.666;2023-02-28T01:09:29;4.70;98.30
33988;DHT22;37428;53.580;-1.666;2023-02-28T01:12:31;4.60;98.30
33988;DHT22;37428;53.580;-1.666;2023-02-28T01:15:34;4.60;98.90
33988;DHT22;37428;53.580;-1.666;2023-02-28T01:18:38;4.60;98.70
33988;DHT22;37428;53.580;-1.666;2023-02-28T01:21:40;4.60;98.90
33988;DHT22;37428;53.580;-1.666;2023-02-28T01:24:42;4.60;98.90
33988;DHT22;37428;53.580;-1.666;2023-02-28T01:27:45;4.70;99.50
33988;DHT22;37428;53.580;-1.666;2023-02-28T01:30:48;4.70;99.10
33988;DHT22;37428;53.580;-1.666;2023-02-28T01:33:52;4.70;99.20
33988;DHT22;37428;53.580;-1.666;2023-02-28T01:36:54;4.80;98.70
33988;DHT22;37428;53.580;-1.666;2023-02-28T01:39:56;4.80;98.10
33988;DHT22;37428;53.580;-1.666;2023-02-28T01:42:58;4.80;98.10
33988;DHT22;37428;53.580;-1.666;2023-02-28T01:46:00;4.80;97.50
33988;DHT22;37428;53.580;-1.666;2023-02-28T01:49:08;4.80;98.20
33988;DHT22;37428;53.580;-1.666;2023-02-28T01:52:12;4.70;98.00
33988;DHT22;37428;53.580;-1.666;2023-02-28T01:55:20;4.80;98.10
33988;DHT22;37428;53.580;-1.666;2023-02-28T01:58:23;4.80;98.00
33988;DHT22;37428;53.580;-1.666;2023-02-28T02:01:25;4.80;97.90
33988;DHT22;37428;53.580;-1.666;2023-02-28T02:04:34;4.70;97.90
33988;DHT22;37428;53.580;-1.666;2023-02-28T02:07:40;4.80;97.80
33988;DHT22;37428;53.580;-1.666;2023-02-28T02:10:46;4.70;98.00
33988;DHT22;37428;53.580;-1.666;2023-02-28T02:14:04;4.80;98.50
33988;DHT22;37428;53.580;-1.666;2023-02-28T02:17:16;4.80;98.10
33988;DHT22;37428;53.580;-1.666;2023-02-28T02:28:09;4.90;97.70
33988;DHT22;37428;53.580;-1.666;2023-02-28T02:31:55;4.90;97.60
33988;DHT22;37428;53.580;-1.666;2023-02-28T02:35:10;4.90;97.40
33988;DHT22;37428;53.580;-1.666;2023-02-28T02:38:23;5.00;97.50
33988;DHT22;37428;53.580;-1.666;2023-02-28T02:41:35;5.00;97.30
33988;DHT22;37428;53.580;-1.666;2023-02-28T02:44:40;5.00;97.10
33988;DHT22;37428;53.580;-1.666;2023-02-28T02:47:45;5.00;97.10
33988;DHT22;37428;53.580;-1.666;2023-02-28T02:50:49;5.00;97.00
33988;DHT22;37428;53.580;-1.666;2023-02-28T02:53:55;5.00;96.90
33988;DHT22;37428;53.580;-1.666;2023-02-28T02:57:04;4.90;96.80
33988;DHT22;37428;53.580;-1.666;2023-02-28T03:00:10;4.80;97.30
33988;DHT22;37428;53.580;-1.666;2023-02-28T03:03:14;4.80;97.50
33988;DHT22;37428;53.580;-1.666;2023-02-28T03:06:24;4.80;97.60
33988;DHT22;37428;53.580;-1.666;2023-02-28T03:09:26;4.80;97.60
33988;DHT22;37428;53.580;-1.666;2023-02-28T03:12:33;4.80;98.00
33988;DHT22;37428;53.580;-1.666;2023-02-28T03:15:53;4.80;97.80
33988;DHT22;37428;53.580;-1.666;2023-02-28T03:19:03;4.80;97.90
33988;DHT22;37428;53.580;-1.666;2023-02-28T03:22:19;4.90;97.90
33988;DHT22;37428;53.580;-1.666;2023-02-28T03:25:31;4.90;97.70
33988;DHT22;37428;53.580;-1.666;2023-02-28T03:28:41;4.90;97.70
33988;DHT22;37428;53.580;-1.666;2023-02-28T03:31:57;4.90;97.70
33988;DHT22;37428;53.580;-1.666;2023-02-28T03:35:08;4.80;97.50
33988;DHT22;37428;53.580;-1.666;2023-02-28T03:38:18;4.80;97.80
33988;DHT22;37428;53.580;-1.666;2023-02-28T03:41:24;4.80;98.10
33988;DHT22;37428;53.580;-1.666;2023-02-28T03:44:32;4.80;98.10
33988;DHT22;37428;53.580;-1.666;2023-02-28T03:47:39;4.70;98.20
33988;DHT22;37428;53.580;-1.666;2023-02-28T03:50:45;4.80;98.40
33988;DHT22;37428;53.580;-1.666;2023-02-28T03:53:54;4.80;98.40
33988;DHT22;37428;53.580;-1.666;2023-02-28T03:57:04;4.80;98.40
33988;DHT22;37428;53.580;-1.666;2023-02-28T04:00:12;4.80;98.60
33988;DHT22;37428;53.580;-1.666;2023-02-28T04:03:18;4.80;98.40
33988;DHT22;37428;53.580;-1.666;2023-02-28T04:06:22;4.90;98.00
33988;DHT22;37428;53.580;-1.666;2023-02-28T04:09:25;4.80;97.80
33988;DHT22;37428;53.580;-1.666;2023-02-28T04:12:29;4.80;98.20
33988;DHT22;37428;53.580;-1.666;2023-02-28T04:15:31;4.80;98.00
33988;DHT22;37428;53.580;-1.666;2023-02-28T04:18:33;4.80;98.40
33988;DHT22;37428;53.580;-1.666;2023-02-28T04:21:37;4.80;98.20
33988;DHT22;37428;53.580;-1.666;2023-02-28T04:24:42;4.80;98.30
33988;DHT22;37428;53.580;-1.666;2023-02-28T04:27:46;4.80;98.20
33988;DHT22;37428;53.580;-1.666;2023-02-28T04:30:53;4.80;98.30
33988;DHT22;37428;53.580;-1.666;2023-02-28T04:33:56;4.80;98.00
33988;DHT22;37428;53.580;-1.666;2023-02-28T04:36:59;4.80;98.00
33988;DHT22;37428;53.580;-1.666;2023-02-28T04:40:02;4.80;98.00
33988;DHT22;37428;53.580;-1.666;2023-02-28T04:43:06;4.80;98.10
33988;DHT22;37428;53.580;-1.666;2023-02-28T04:46:09;4.80;98.00
33988;DHT22;37428;53.580;-1.666;2023-02-28T04:49:12;4.80;98.10
33988;DHT22;37428;53.580;-1.666;2023-02-28T04:52:20;4.70;98.40
33988;DHT22;37428;53.580;-1.666;2023-02-28T04:55:24;4.80;98.60
33988;DHT22;37428;53.580;-1.666;2023-02-28T04:58:26;4.70;98.30
33988;DHT22;37428;53.580;-1.666;2023-02-28T05:01:28;4.70;98.40
33988;DHT22;37428;53.580;-1.666;2023-02-28T05:04:31;4.70;98.50
33988;DHT22;37428;53.580;-1.666;2023-02-28T05:07:34;4.70;98.80
33988;DHT22;37428;53.580;-1.666;2023-02-28T05:10:38;4.70;98.90
33988;DHT22;37428;53.580;-1.666;2023-02-28T05:13:40;4.70;98.80
33988;DHT22;37428;53.580;-1.666;2023-02-28T05:16:42;4.70;99.10
33988;DHT22;37428;53.580;-1.666;2023-02-28T05:19:45;4.70;99.40
33988;DHT22;37428;53.580;-1.666;2023-02-28T05:22:47;4.70;99.50
33988;DHT22;37428;53.580;-1.666;2023-02-28T05:25:52;4.70;99.40
33988;DHT22;37428;53.580;-1.666;2023-02-28T05:28:55;4.70;99.00
33988;DHT22;37428;53.580;-1.666;2023-02-28T05:31:58;4.70;99.10
33988;DHT22;37428;53.580;-1.666;2023-02-28T05:35:00;4.70;99.20
33988;DHT22;37428;53.580;-1.666;2023-02-28T05:38:02;4.70;99.10
33988;DHT22;37428;53.580;-1.666;2023-02-28T05:41:07;4.70;98.90
33988;DHT22;37428;53.580;-1.666;2023-02-28T05:44:12;4.70;99.00
33988;DHT22;37428;53.580;-1.666;2023-02-28T05:47:14;4.70;99.00
33988;DHT22;37428;53.580;-1.666;2023-02-28T05:50:19;4.70;98.90
33988;DHT22;37428;53.580;-1.666;2023-02-28T05:53:21;4.60;98.90
33988;DHT22;37428;53.580;-1.666;2023-02-28T05:56:25;4.60;98.90
33988;DHT22;37428;53.580;-1.666;2023-02-28T05:59:27;4.70;98.90
33988;DHT22;37428;53.580;-1.666;2023-02-28T06:02:29;4.60;98.90
33988;DHT22;37428;53.580;-1.666;2023-02-28T06:05:31;4.60;99.10
33988;DHT22;37428;53.580;-1.666;2023-02-28T06:08:33;4.60;99.30
33988;DHT22;37428;53.580;-1.666;2023-02-28T06:11:37;4.60;99.40
33988;DHT22;37428;53.580;-1.666;2023-02-28T06:14:45;4.60;99.00
33988;DHT22;37428;53.580;-1.666;2023-02-28T06:17:49;4.50;99.00
33988;DHT22;37428;53.580;-1.666;2023-02-28T06:20:52;4.50;99.20
33988;DHT22;37428;53.580;-1.666;2023-02-28T06:23:55;4.60;99.00
33988;DHT22;37428;53.580;-1.666;2023-02-28T06:26:59;4.50;98.60
33988;DHT22;37428;53.580;-1.666;2023-02-28T06:30:06;4.50;98.80
33988;DHT22;37428;53.580;-1.666;2023-02-28T06:33:08;4.50;99.00
33988;DHT22;37428;53.580;-1.666;2023-02-28T06:36:13;4.50;99.30
33988;DHT22;37428;53.580;-1.666;2023-02-28T06:39:15;4.50;99.00
33988;DHT22;37428;53.580;-1.666;2023-02-28T06:42:19;4.50;99.00
33988;DHT22;37428;53.580;-1.666;2023-02-28T06:45:22;4.50;98.90
33988;DHT22;37428;53.580;-1.666;2023-02-28T06:48:27;4.50;98.60
33988;DHT22;37428;53.580;-1.666;2023-02-28T06:51:29;4.50;98.50
33988;DHT22;37428;53.580;-1.666;2023-02-28T06:54:31;4.40;98.40
33988;DHT22;37428;53.580;-1.666;2023-02-28T06:57:36;4.40;98.70
33988;DHT22;37428;53.580;-1.666;2023-02-28T07:00:40;4.40;98.40
33988;DHT22;37428;53.580;-1.666;2023-02-28T07:03:43;4.30;98.70
33988;DHT22;37428;53.580;-1.666;2023-02-28T07:06:45;4.30;98.90
33988;DHT22;37428;53.580;-1.666;2023-02-28T07:09:47;4.40;99.20
33988;DHT22;37428;53.580;-1.666;2023-02-28T07:12:50;4.30;98.60
33988;DHT22;37428;53.580;-1.666;2023-02-28T07:15:54;4.30;98.20
33988;DHT22;37428;53.580;-1.666;2023-02-28T07:18:56;4.40;98.50
33988;DHT22;37428;53.580;-1.666;2023-02-28T07:21:58;4.40;98.30
33988;DHT22;37428;53.580;-1.666;2023-02-28T07:25:01;4.40;97.80
33988;DHT22;37428;53.580;-1.666;2023-02-28T07:28:07;4.30;98.20
33988;DHT22;37428;53.580;-1.666;2023-02-28T07:31:11;4.40;98.30
33988;DHT22;37428;53.580;-1.666;2023-02-28T07:34:14;4.40;97.90
33988;DHT22;37428;53.580;-1.666;2023-02-28T07:37:16;4.40;97.50
33988;DHT22;37428;53.580;-1.666;2023-02-28T07:40:23;4.40;97.50
33988;DHT22;37428;53.580;-1.666;2023-02-28T07:43:26;4.40;97.40
33988;DHT22;37428;53.580;-1.666;2023-02-28T07:46:28;4.40;97.70
33988;DHT22;37428;53.580;-1.666;2023-02-28T07:49:42;4.40;97.70
33988;DHT22;37428;53.580;-1.666;2023-02-28T07:52:44;4.30;97.30
33988;DHT22;37428;53.580;-1.666;2023-02-28T07:55:46;4.30;97.60
33988;DHT22;37428;53.580;-1.666;2023-02-28T07:58:51;4.40;98.10
33988;DHT22;37428;53.580;-1.666;2023-02-28T08:01:53;4.40;97.60
33988;DHT22;37428;53.580;-1.666;2023-02-28T08:04:55;4.40;97.40
33988;DHT22;37428;53.580;-1.666;2023-02-28T08:07:57;4.30;97.50
33988;DHT22;37428;53.580;-1.666;2023-02-28T08:11:00;4.30;97.70
33988;DHT22;37428;53.580;-1.666;2023-02-28T08:14:04;4.40;97.80
33988;DHT22;37428;53.580;-1.666;2023-02-28T08:17:06;4.40;97.90
33988;DHT22;37428;53.580;-1.666;2023-02-28T08:20:09;4.40;97.20
33988;DHT22;37428;53.580;-1.666;2023-02-28T08:23:12;4.40;97.00
33988;DHT22;37428;53.580;-1.666;2023-02-28T08:26:14;4.50;97.50
33988;DHT22;37428;53.580;-1.666;2023-02-28T08:29:17;4.50;97.40
33988;DHT22;37428;53.580;-1.666;2023-02-28T08:32:19;4.50;96.60
33988;DHT22;37428;53.580;-1.666;2023-02-28T08:35:22;4.40;96.60
33988;DHT22;37428;53.580;-1.666;2023-02-28T08:38:24;4.40;96.40
33988;DHT22;37428;53.580;-1.666;2023-02-28T08:41:28;4.50;97.00
33988;DHT22;37428;53.580;-1.666;2023-02-28T08:44:32;4.50;96.80
33988;DHT22;37428;53.580;-1.666;2023-02-28T08:47:36;4.50;97.30
33988;DHT22;37428;53.580;-1.666;2023-02-28T08:50:40;4.50;97.10
33988;DHT22;37428;53.580;-1.666;2023-02-28T08:53:42;4.40;97.20
33988;DHT22;37428;53.580;-1.666;2023-02-28T08:56:45;4.40;97.50
33988;DHT22;37428;53.580;-1.666;2023-02-28T08:59:48;4.50;97.70
33988;DHT22;37428;53.580;-1.666;2023-02-28T09:02:52;4.50;97.50
33988;DHT22;37428;53.580;-1.666;2023-02-28T09:05:58;4.50;97.60
33988;DHT22;37428;53.580;-1.666;2023-02-28T09:09:01;4.50;97.70
33988;DHT22;37428;53.580;-1.666;2023-02-28T09:12:07;4.60;97.60
33988;DHT22;37428;53.580;-1.666;2023-02-28T09:15:11;4.60;97.30
33988;DHT22;37428;53.580;-1.666;2023-02-28T09:18:14;4.70;97.70
33988;DHT22;37428;53.580;-1.666;2023-02-28T09:21:18;4.80;97.40
33988;DHT22;37428;53.580;-1.666;2023-02-28T09:24:21;4.90;97.00
33988;DHT22;37428;53.580;-1.666;2023-02-28T09:27:25;5.00;96.60
33988;DHT22;37428;53.580;-1.666;2023-02-28T09:30:29;5.00;96.10
33988;DHT22;37428;53.580;-1.666;2023-02-28T09:33:31;5.10;96.10
33988;DHT22;37428;53.580;-1.666;2023-02-28T09:36:35;5.10;95.70
33988;DHT22;37428;53.580;-1.666;2023-02-28T09:39:38;5.10;96.00
33988;DHT22;37428;53.580;-1.666;2023-02-28T09:42:41;5.10;95.40
33988;DHT22;37428;53.580;-1.666;2023-02-28T09:45:48;5.10;95.20
33988;DHT22;37428;53.580;-1.666;2023-02-28T09:48:52;5.10;95.00
33988;DHT22;37428;53.580;-1.666;2023-02-28T09:51:59;5.20;95.20
33988;DHT22;37428;53.580;-1.666;2023-02-28T09:55:33;5.20;94.90
33988;DHT22;37428;53.580;-1.666;2023-02-28T09:58:40;5.30;94.40
33988;DHT22;37428;53.580;-1.666;2023-02-28T10:01:51;5.30;93.60
33988;DHT22;37428;53.580;-1.666;2023-02-28T10:04:56;5.30;93.50
33988;DHT22;37428;53.580;-1.666;2023-02-28T10:08:09;5.30;93.10
33988;DHT22;37428;53.580;-1.666;2023-02-28T10:11:16;5.50;93.20
33988;DHT22;37428;53.580;-1.666;2023-02-28T10:14:25;5.60;93.30
33988;DHT22;37428;53.580;-1.666;2023-02-28T10:17:37;5.60;93.00
33988;DHT22;37428;53.580;-1.666;2023-02-28T10:20:42;5.70;91.90
33988;DHT22;37428;53.580;-1.666;2023-02-28T10:23:46;5.70;91.50
33988;DHT22;37428;53.580;-1.666;2023-02-28T10:27:12;5.70;91.90
33988;DHT22;37428;53.580;-1.666;2023-02-28T10:30:14;5.70;90.90
33988;DHT22;37428;53.580;-1.666;2023-02-28T10:33:23;5.60;91.10
33988;DHT22;37428;53.580;-1.666;2023-02-28T10:36:28;5.50;91.80
33988;DHT22;37428;53.580;-1.666;2023-02-28T10:39:39;5.40;91.70
33988;DHT22;37428;53.580;-1.666;2023-02-28T10:42:41;5.50;92.30
33988;DHT22;37428;53.580;-1.666;2023-02-28T10:45:55;5.50;92.60
33988;DHT22;37428;53.580;-1.666;2023-02-28T10:49:03;5.60;92.10
33988;DHT22;37428;53.580;-1.666;2023-02-28T10:52:08;5.80;92.10
33988;DHT22;37428;53.580;-1.666;2023-02-28T10:55:18;6.00;91.80
33988;DHT22;37428;53.580;-1.666;2023-02-28T10:58:22;6.20;91.20
33988;DHT22;37428;53.580;-1.666;2023-02-28T11:01:41;6.30;89.40
33988;DHT22;37428;53.580;-1.666;2023-02-28T11:04:47;6.50;89.40
33988;DHT22;37428;53.580;-1.666;2023-02-28T11:07:54;6.60;89.40
33988;DHT22;37428;53.580;-1.666;2023-02-28T11:11:03;6.70;87.70
33988;DHT22;37428;53.580;-1.666;2023-02-28T11:14:06;6.70;86.90
33988;DHT22;37428;53.580;-1.666;2023-02-28T11:17:21;6.70;86.20
33988;DHT22;37428;53.580;-1.666;2023-02-28T11:20:28;6.70;86.30
33988;DHT22;37428;53.580;-1.666;2023-02-28T11:23:35;6.90;87.00
33988;DHT22;37428;53.580;-1.666;2023-02-28T11:26:44;7.00;86.70
33988;DHT22;37428;53.580;-1.666;2023-02-28T11:29:47;7.00;85.60
33988;DHT22;37428;53.580;-1.666;2023-02-28T11:32:49;7.00;86.30
33988;DHT22;37428;53.580;-1.666;2023-02-28T11:35:57;7.00;86.10
33988;DHT22;37428;53.580;-1.666;2023-02-28T11:39:08;6.90;86.30
33988;DHT22;37428;53.580;-1.666;2023-02-28T11:42:32;6.70;86.30
33988;DHT22;37428;53.580;-1.666;2023-02-28T11:45:45;6.60;87.30
33988;DHT22;37428;53.580;-1.666;2023-02-28T11:48:58;6.70;88.70
33988;DHT22;37428;53.580;-1.666;2023-02-28T11:52:16;6.80;89.60
33988;DHT22;37428;53.580;-1.666;2023-02-28T11:55:26;6.80;89.00
33988;DHT22;37428;53.580;-1.666;2023-02-28T11:58:46;6.60;88.50
33988;DHT22;37428;53.580;-1.666;2023-02-28T12:02:15;6.50;88.80
33988;DHT22;37428;53.580;-1.666;2023-02-28T12:05:31;6.40;89.60
33988;DHT22;37428;53.580;-1.666;2023-02-28T12:08:47;6.40;90.30
33988;DHT22;37428;53.580;-1.666;2023-02-28T12:11:53;6.40;91.00
33988;DHT22;37428;53.580;-1.666;2023-02-28T12:15:21;6.50;90.90
33988;DHT22;37428;53.580;-1.666;2023-02-28T12:18:38;6.60;90.90
33988;DHT22;37428;53.580;-1.666;2023-02-28T12:21:57;6.70;90.70
33988;DHT22;37428;53.580;-1.666;2023-02-28T12:25:34;6.70;89.80
33988;DHT22;37428;53.580;-1.666;2023-02-28T12:28:44;6.60;90.30
33988;DHT22;37428;53.580;-1.666;2023-02-28T12:31:49;6.40;90.80
33988;DHT22;37428;53.580;-1.666;2023-02-28T12:34:56;6.30;91.60
33988;DHT22;37428;53.580;-1.666;2023-02-28T12:38:04;6.60;92.80
33988;DHT22;37428;53.580;-1.666;2023-02-28T12:41:14;6.90;92.40
33988;DHT22;37428;53.580;-1.666;2023-02-28T12:44:30;7.10;91.70
33988;DHT22;37428;53.580;-1.666;2023-02-28T12:47:35;7.10;91.00
33988;DHT22;37428;53.580;-1.666;2023-02-28T12:50:40;7.00;89.80
33988;DHT22;37428;53.580;-1.666;2023-02-28T12:53:58;6.80;89.40
33988;DHT22;37428;53.580;-1.666;2023-02-28T12:57:08;6.70;89.60
33988;DHT22;37428;53.580;-1.666;2023-02-28T13:00:14;6.70;90.70
33988;DHT22;37428;53.580;-1.666;2023-02-28T13:03:36;6.80;90.80
33988;DHT22;37428;53.580;-1.666;2023-02-28T13:10:44;6.60;90.50
33988;DHT22;37428;53.580;-1.666;2023-02-28T13:13:57;6.50;90.80
33988;DHT22;37428;53.580;-1.666;2023-02-28T13:17:10;6.40;90.70
33988;DHT22;37428;53.580;-1.666;2023-02-28T13:20:17;6.30;90.80
33988;DHT22;37428;53.580;-1.666;2023-02-28T13:27:34;6.30;92.00
33988;DHT22;37428;53.580;-1.666;2023-02-28T13:31:16;6.40;92.30
33988;DHT22;37428;53.580;-1.666;2023-02-28T13:34:21;6.50;90.90
33988;DHT22;37428;53.580;-1.666;2023-02-28T13:37:36;6.60;90.80
33988;DHT22;37428;53.580;-1.666;2023-02-28T13:40:38;6.70;90.30
33988;DHT22;37428;53.580;-1.666;2023-02-28T13:44:13;6.50;88.80
33988;DHT22;37428;53.580;-1.666;2023-02-28T13:47:34;6.50;89.80
33988;DHT22;37428;53.580;-1.666;2023-02-28T13:50:39;6.40;89.30
33988;DHT22;37428;53.580;-1.666;2023-02-28T13:53:59;6.40;89.30
33988;DHT22;37428;53.580;-1.666;2023-02-28T13:57:23;6.30;88.90
33988;DHT22;37428;53.580;-1.666;2023-02-28T14:00:41;6.40;89.30
33988;DHT22;37428;53.580;-1.666;2023-02-28T14:04:02;6.50;88.10
33988;DHT22;37428;53.580;-1.666;2023-02-28T14:07:09;6.40;87.40
33988;DHT22;37428;53.580;-1.666;2023-02-28T14:10:25;6.30;86.90
33988;DHT22;37428;53.580;-1.666;2023-02-28T14:13:39;6.30;87.80
33988;DHT22;37428;53.580;-1.666;2023-02-28T14:16:47;6.20;86.60
33988;DHT22;37428;53.580;-1.666;2023-02-28T14:19:56;6.20;87.20
33988;DHT22;37428;53.580;-1.666;2023-02-28T14:23:07;6.20;86.90
33988;DHT22;37428;53.580;-1.666;2023-02-28T14:26:26;6.30;88.10
33988;DHT22;37428;53.580;-1.666;2023-02-28T14:29:44;6.50;87.70
33988;DHT22;37428;53.580;-1.666;2023-02-28T14:33:00;6.50;86.40
33988;DHT22;37428;53.580;-1.666;2023-02-28T14:36:12;6.50;87.10
33988;DHT22;37428;53.580;-1.666;2023-02-28T14:39:20;6.40;86.00
33988;DHT22;37428;53.580;-1.666;2023-02-28T14:42:31;6.40;87.00
33988;DHT22;37428;53.580;-1.666;2023-02-28T14:45:36;6.30;87.00
33988;DHT22;37428;53.580;-1.666;2023-02-28T14:48:45;6.30;86.80
33988;DHT22;37428;53.580;-1.666;2023-02-28T14:52:00;6.40;87.00
33988;DHT22;37428;53.580;-1.666;2023-02-28T14:55:11;6.40;86.60
33988;DHT22;37428;53.580;-1.666;2023-02-28T14:58:22;6.50;86.50
33988;DHT22;37428;53.580;-1.666;2023-02-28T15:01:27;6.60;86.10
33988;DHT22;37428;53.580;-1.666;2023-02-28T15:04:35;6.50;84.80
33988;DHT22;37428;53.580;-1.666;2023-02-28T15:07:39;6.50;85.20
33988;DHT22;37428;53.580;-1.666;2023-02-28T15:10:43;6.50;83.70
33988;DHT22;37428;53.580;-1.666;2023-02-28T15:13:47;6.40;84.90
33988;DHT22;37428;53.580;-1.666;2023-02-28T15:16:55;6.50;84.90
33988;DHT22;37428;53.580;-1.666;2023-02-28T15:20:02;6.50;85.50
33988;DHT22;37428;53.580;-1.666;2023-02-28T15:23:06;6.40;86.10
33988;DHT22;37428;53.580;-1.666;2023-02-28T15:26:14;6.40;85.90
33988;DHT22;37428;53.580;-1.666;2023-02-28T15:29:24;6.40;85.60
33988;DHT22;37428;53.580;-1.666;2023-02-28T15:32:29;6.40;85.70
33988;DHT22;37428;53.580;-1.666;2023-02-28T15:35:46;6.30;85.40
33988;DHT22;37428;53.580;-1.666;2023-02-28T15:39:00;6.30;85.40
33988;DHT22;37428;53.580;-1.666;2023-02-28T15:42:27;6.20;86.00
33988;DHT22;37428;53.580;-1.666;2023-02-28T15:45:37;6.30;86.90
33988;DHT22;37428;53.580;-1.666;2023-02-28T15:48:45;6.10;86.90
33988;DHT22;37428;53.580;-1.666;2023-02-28T15:51:53;6.00;88.70
33988;DHT22;37428;53.580;-1.666;2023-02-28T15:54:57;6.00;89.80
33988;DHT22;37428;53.580;-1.666;2023-02-28T15:58:01;5.90;90.10
33988;DHT22;37428;53.580;-1.666;2023-02-28T16:01:15;5.90;90.20
33988;DHT22;37428;53.580;-1.666;2023-02-28T16:04:33;6.00;90.40
33988;DHT22;37428;53.580;-1.666;2023-02-28T16:07:37;6.00;90.30
33988;DHT22;37428;53.580;-1.666;2023-02-28T16:10:41;6.10;90.00
33988;DHT22;37428;53.580;-1.666;2023-02-28T16:13:43;6.10;90.10
33988;DHT22;37428;53.580;-1.666;2023-02-28T16:16:48;6.10;90.20
33988;DHT22;37428;53.580;-1.666;2023-02-28T16:19:52;6.10;90.30
33988;DHT22;37428;53.580;-1.666;2023-02-28T16:22:57;6.10;91.00
33988;DHT22;37428;53.580;-1.666;2023-02-28T16:26:05;6.10;91.00
33988;DHT22;37428;53.580;-1.666;2023-02-28T16:29:09;6.00;90.80
33988;DHT22;37428;53.580;-1.666;2023-02-28T16:32:16;6.00;91.00
33988;DHT22;37428;53.580;-1.666;2023-02-28T16:35:18;6.00;91.10
33988;DHT22;37428;53.580;-1.666;2023-02-28T16:38:23;6.00;90.80
33988;DHT22;37428;53.580;-1.666;2023-02-28T16:41:31;6.00;90.50
33988;DHT22;37428;53.580;-1.666;2023-02-28T16:44:35;6.10;90.60
33988;DHT22;37428;53.580;-1.666;2023-02-28T16:47:39;6.10;90.60
33988;DHT22;37428;53.580;-1.666;2023-02-28T16:50:42;6.00;90.30
33988;DHT22;37428;53.580;-1.666;2023-02-28T16:53:45;6.00;90.50
33988;DHT22;37428;53.580;-1.666;2023-02-28T16:56:49;6.00;91.10
33988;DHT22;37428;53.580;-1.666;2023-02-28T17:00:06;6.00;90.80
33988;DHT22;37428;53.580;-1.666;2023-02-28T17:03:22;6.00;90.60
33988;DHT22;37428;53.580;-1.666;2023-02-28T17:06:28;6.00;90.90
33988;DHT22;37428;53.580;-1.666;2023-02-28T17:09:32;5.90;90.80
33988;DHT22;37428;53.580;-1.666;2023-02-28T17:12:36;5.90;91.00
33988;DHT22;37428;53.580;-1.666;2023-02-28T17:15:46;5.80;91.20
33988;DHT22;37428;53.580;-1.666;2023-02-28T17:18:50;5.80;91.40
33988;DHT22;37428;53.580;-1.666;2023-02-28T17:21:53;5.80;91.50
33988;DHT22;37428;53.580;-1.666;2023-02-28T17:25:01;5.80;91.20
33988;DHT22;37428;53.580;-1.666;2023-02-28T17:28:05;5.80;91.30
33988;DHT22;37428;53.580;-1.666;2023-02-28T17:31:13;5.80;91.70
33988;DHT22;37428;53.580;-1.666;2023-02-28T17:34:15;5.80;91.30
33988;DHT22;37428;53.580;-1.666;2023-02-28T17:37:18;5.80;91.20
33988;DHT22;37428;53.580;-1.666;2023-02-28T17:40:27;5.80;91.60
33988;DHT22;37428;53.580;-1.666;2023-02-28T17:43:32;5.80;91.80
33988;DHT22;37428;53.580;-1.666;2023-02-28T17:46:34;5.70;92.10
33988;DHT22;37428;53.580;-1.666;2023-02-28T17:49:36;5.70;92.30
33988;DHT22;37428;53.580;-1.666;2023-02-28T17:52:40;5.70;92.60
33988;DHT22;37428;53.580;-1.666;2023-02-28T17:55:44;5.70;92.60
33988;DHT22;37428;53.580;-1.666;2023-02-28T17:58:47;5.60;93.00
33988;DHT22;37428;53.580;-1.666;2023-02-28T18:01:51;5.50;93.20
33988;DHT22;37428;53.580;-1.666;2023-02-28T18:05:07;5.50;93.90
33988;DHT22;37428;53.580;-1.666;2023-02-28T18:08:10;5.40;93.90
33988;DHT22;37428;53.580;-1.666;2023-02-28T18:11:16;5.40;94.00
33988;DHT22;37428;53.580;-1.666;2023-02-28T18:14:22;5.20;93.70
33988;DHT22;37428;53.580;-1.666;2023-02-28T18:17:25;5.20;94.00
33988;DHT22;37428;53.580;-1.666;2023-02-28T18:20:27;5.20;94.00
33988;DHT22;37428;53.580;-1.666;2023-02-28T18:23:43;5.10;93.20
33988;DHT22;37428;53.580;-1.666;2023-02-28T18:26:51;5.00;93.10
33988;DHT22;37428;53.580;-1.666;2023-02-28T18:29:54;5.00;94.00
33988;DHT22;37428;53.580;-1.666;2023-02-28T18:32:57;5.10;94.10
33988;DHT22;37428;53.580;-1.666;2023-02-28T18:35:59;5.10;94.00
33988;DHT22;37428;53.580;-1.666;2023-02-28T18:39:05;5.20;93.70
33988;DHT22;37428;53.580;-1.666;2023-02-28T18:42:13;5.30;93.80
33988;DHT22;37428;53.580;-1.666;2023-02-28T18:45:17;5.30;92.90
33988;DHT22;37428;53.580;-1.666;2023-02-28T18:48:34;5.20;92.50
33988;DHT22;37428;53.580;-1.666;2023-02-28T18:51:36;5.10;92.80
33988;DHT22;37428;53.580;-1.666;2023-02-28T18:54:40;5.10;93.20
33988;DHT22;37428;53.580;-1.666;2023-02-28T18:57:42;5.10;93.70
33988;DHT22;37428;53.580;-1.666;2023-02-28T19:00:46;5.00;93.90
33988;DHT22;37428;53.580;-1.666;2023-02-28T19:03:49;5.00;94.30
33988;DHT22;37428;53.580;-1.666;2023-02-28T19:06:53;5.00;94.40
33988;DHT22;37428;53.580;-1.666;2023-02-28T19:09:55;5.00;94.90
33988;DHT22;37428;53.580;-1.666;2023-02-28T19:12:59;4.90;95.80
33988;DHT22;37428;53.580;-1.666;2023-02-28T19:16:04;4.90;95.70
33988;DHT22;37428;53.580;-1.666;2023-02-28T19:19:07;4.90;96.00
33988;DHT22;37428;53.580;-1.666;2023-02-28T19:22:09;4.80;96.00
33988;DHT22;37428;53.580;-1.666;2023-02-28T19:25:17;4.80;96.40
33988;DHT22;37428;53.580;-1.666;2023-02-28T19:28:19;4.80;96.70
33988;DHT22;37428;53.580;-1.666;2023-02-28T19:31:24;4.80;96.50
33988;DHT22;37428;53.580;-1.666;2023-02-28T19:34:29;4.80;97.10
33988;DHT22;37428;53.580;-1.666;2023-02-28T19:37:32;4.80;97.10
33988;DHT22;37428;53.580;-1.666;2023-02-28T19:40:36;4.80;96.70
33988;DHT22;37428;53.580;-1.666;2023-02-28T19:43:38;4.80;97.80
33988;DHT22;37428;53.580;-1.666;2023-02-28T19:46:43;4.80;97.80
33988;DHT22;37428;53.580;-1.666;2023-02-28T19:49:49;4.80;97.80
33988;DHT22;37428;53.580;-1.666;2023-02-28T19:52:54;4.80;97.60
33988;DHT22;37428;53.580;-1.666;2023-02-28T19:55:56;4.80;97.80